createdAt,value
2023-05-22T00:00:03.085Z,79.09
2023-05-22T00:05:06.960Z,79.93
2023-05-22T00:10:10.913Z,80.41
2023-05-22T00:15:14.014Z,81.14
2023-05-22T00:20:17.343Z,81.75
2023-05-22T00:25:20.857Z,82.50
2023-05-22T00:30:23.958Z,83.33
2023-05-22T00:35:27.069Z,84.20
2023-05-22T00:40:30.283Z,85.45
2023-05-22T00:45:33.295Z,86.29
2023-05-22T00:50:36.609Z,86.77
2023-05-22T00:55:40.286Z,87.43
2023-05-22T01:00:43.740Z,89.09
2023-05-22T01:05:46.754Z,90.01
2023-05-22T01:11:01.670Z,90.55
2023-05-22T01:16:30.141Z,91.35
2023-05-22T01:21:47.820Z,92.73
2023-05-22T01:27:08.625Z,93.25
2023-05-22T01:32:16.639Z,93.74
2023-05-22T01:37:22.820Z,94.41
2023-05-22T01:42:26.171Z,95.11
2023-05-22T01:47:29.367Z,95.83
2023-05-22T01:52:43.924Z,96.36
2023-05-22T01:57:59.867Z,96.85
2023-05-22T02:03:09.245Z,96.62
2023-05-22T02:08:14.754Z,96.90
2023-05-22T02:13:18.487Z,97.85
2023-05-22T02:18:29.728Z,98.73
2023-05-22T02:23:32.991Z,98.75
2023-05-22T02:28:36.100Z,98.95
2023-05-22T02:33:39.207Z,99.68
2023-05-22T02:38:42.323Z,100.00
2023-05-22T02:43:45.426Z,100.00
2023-05-22T02:48:48.539Z,100.00
2023-05-22T02:53:52.573Z,100.00
2023-05-22T02:58:57.136Z,100.00
2023-05-22T03:04:00.306Z,100.00
2023-05-22T03:09:04.601Z,100.00
2023-05-22T03:14:07.861Z,100.00
2023-05-22T03:19:15.713Z,100.00
2023-05-22T03:24:19.109Z,100.00
2023-05-22T03:29:22.342Z,95.65
2023-05-22T03:34:27.309Z,89.08
2023-05-22T03:39:30.587Z,87.64
2023-05-22T03:44:33.795Z,86.52
2023-05-22T03:49:36.800Z,81.92
2023-05-22T03:54:39.908Z,79.25
2023-05-22T03:59:42.927Z,75.18
2023-05-22T04:04:49.159Z,71.02
2023-05-22T04:09:52.403Z,63.26
2023-05-22T04:14:55.659Z,55.40
2023-05-22T04:19:58.810Z,52.59
2023-05-22T04:25:01.765Z,51.87
2023-05-22T04:30:07.478Z,51.63
2023-05-22T04:35:12.510Z,51.63
2023-05-22T04:40:16.420Z,51.50
2023-05-22T04:45:21.445Z,50.62
2023-05-22T04:50:25.165Z,48.78
2023-05-22T04:55:28.482Z,47.68
2023-05-22T05:00:32.605Z,46.30
2023-05-22T05:05:36.028Z,45.48
2023-05-22T05:10:39.542Z,45.17
2023-05-22T05:15:42.967Z,44.87
2023-05-22T05:20:46.438Z,44.72
2023-05-22T05:25:49.799Z,44.22
2023-05-22T05:30:53.006Z,44.74
2023-05-22T05:35:56.424Z,45.09
2023-05-22T05:40:59.550Z,45.97
2023-05-22T05:46:02.770Z,46.30
2023-05-22T05:51:05.969Z,46.06
2023-05-22T05:56:09.947Z,46.29
2023-05-22T06:01:13.422Z,46.30
2023-05-22T06:06:17.745Z,46.46
2023-05-22T06:11:22.415Z,47.30
2023-05-22T06:16:26.615Z,47.58
2023-05-22T06:21:29.839Z,48.22
2023-05-22T06:26:33.611Z,49.33
2023-05-22T06:31:38.768Z,49.67
2023-05-22T06:36:42.493Z,50.65
2023-05-22T06:41:45.858Z,50.97
2023-05-22T06:46:49.382Z,50.46
2023-05-22T06:51:52.816Z,50.08
2023-05-22T06:56:57.752Z,49.41
2023-05-22T07:02:01.161Z,47.57
2023-05-22T07:07:04.475Z,45.18
2023-05-22T07:12:08.543Z,44.35
2023-05-22T07:17:11.826Z,41.76
2023-05-22T07:22:15.593Z,40.44
2023-05-22T07:27:18.858Z,38.84
2023-05-22T07:32:22.425Z,38.70
2023-05-22T07:37:25.805Z,38.21
2023-05-22T07:42:30.432Z,36.70
2023-05-22T07:47:33.596Z,36.71
2023-05-22T07:52:36.855Z,35.39
2023-05-22T07:57:39.973Z,34.82
2023-05-22T08:02:44.071Z,33.93
2023-05-22T08:07:47.300Z,32.89
2023-05-22T08:12:50.537Z,31.78
2023-05-22T08:17:53.853Z,29.73
2023-05-22T08:22:57.152Z,30.18
2023-05-22T08:28:00.251Z,29.10
2023-05-22T08:33:03.477Z,29.18
2023-05-22T08:38:06.775Z,29.17
2023-05-22T08:43:09.890Z,28.54
2023-05-22T08:48:14.206Z,29.08
2023-05-22T08:53:19.180Z,29.92
2023-05-22T08:58:22.514Z,29.89
2023-05-22T09:03:29.084Z,29.83
2023-05-22T09:08:32.501Z,29.85
2023-05-22T09:13:38.895Z,29.62
2023-05-22T09:18:42.778Z,29.92
2023-05-22T09:23:51.108Z,30.04
2023-05-22T09:28:54.256Z,29.89
2023-05-22T09:33:57.595Z,29.89
2023-05-22T09:39:01.961Z,30.84
2023-05-22T09:44:16.312Z,31.49
2023-05-22T09:49:19.795Z,31.23
2023-05-22T09:54:26.368Z,31.22
2023-05-22T09:59:31.588Z,31.87
2023-05-22T10:04:35.065Z,32.37
2023-05-22T10:09:40.908Z,31.49
2023-05-22T10:14:44.150Z,31.09
2023-05-22T10:19:47.576Z,30.96
2023-05-22T10:24:52.326Z,30.76
2023-05-22T10:30:04.063Z,31.32
2023-05-22T10:35:38.878Z,30.48
2023-05-22T10:40:45.498Z,30.36
2023-05-22T10:45:48.809Z,30.64
2023-05-22T10:50:54.868Z,30.32
2023-05-22T10:56:02.786Z,30.18
2023-05-22T11:01:11.153Z,31.44
2023-05-22T11:06:32.559Z,31.75
2023-05-22T11:11:35.666Z,32.31
2023-05-22T11:16:39.521Z,31.17
2023-05-22T11:21:47.007Z,30.40
2023-05-22T11:27:06.910Z,30.13
2023-05-22T11:32:12.257Z,30.81
2023-05-22T11:37:16.506Z,31.62
2023-05-22T11:42:20.230Z,32.11
2023-05-22T11:47:23.469Z,32.30
2023-05-22T11:52:32.757Z,32.94
2023-05-22T11:57:36.963Z,33.07
2023-05-22T12:02:46.819Z,32.92
2023-05-22T12:07:50.498Z,32.61
2023-05-22T12:12:54.864Z,32.41
2023-05-22T12:17:58.165Z,32.24
2023-05-22T12:23:01.402Z,30.58
2023-05-22T12:28:07.147Z,30.17
2023-05-22T12:33:14.435Z,30.43
2023-05-22T12:38:21.382Z,30.93
2023-05-22T12:43:25.702Z,31.24
2023-05-22T12:48:29.000Z,31.75
2023-05-22T12:53:32.117Z,31.93
2023-05-22T12:58:35.330Z,32.44
2023-05-22T13:03:38.441Z,32.82
2023-05-22T13:08:41.751Z,32.59
2023-05-22T13:13:44.854Z,32.89
2023-05-22T13:18:48.221Z,32.68
2023-05-22T13:23:51.845Z,32.53
2023-05-22T13:28:55.102Z,32.25
2023-05-22T13:33:59.148Z,32.38
2023-05-22T13:39:03.058Z,31.58
2023-05-22T13:44:06.521Z,30.51
2023-05-22T13:49:09.691Z,29.99
2023-05-22T13:54:13.011Z,28.84
2023-05-22T13:59:16.111Z,28.67
2023-05-22T14:04:19.427Z,28.96
2023-05-22T14:09:22.740Z,29.93
2023-05-22T14:14:26.057Z,29.38
2023-05-22T14:19:29.334Z,30.45
2023-05-22T14:24:32.471Z,31.37
2023-05-22T14:29:35.925Z,32.22
2023-05-22T14:34:39.717Z,32.28
2023-05-22T14:39:42.828Z,33.16
2023-05-22T14:44:46.346Z,33.48
2023-05-22T14:49:49.456Z,33.93
2023-05-22T14:54:52.564Z,34.11
2023-05-22T14:59:55.875Z,33.78
2023-05-22T15:04:58.907Z,33.35
2023-05-22T15:10:02.509Z,33.00
2023-05-22T15:15:06.295Z,32.70
2023-05-22T15:20:10.630Z,32.71
2023-05-22T15:25:15.554Z,32.73
2023-05-22T15:30:20.792Z,32.92
2023-05-22T15:35:25.422Z,33.47
2023-05-22T15:40:28.438Z,32.71
2023-05-22T15:45:32.098Z,32.94
2023-05-22T15:50:35.358Z,33.22
2023-05-22T15:55:38.792Z,33.11
2023-05-22T16:00:42.096Z,33.38
2023-05-22T16:05:47.252Z,34.64
2023-05-22T16:10:50.359Z,34.22
2023-05-22T16:15:53.804Z,33.96
2023-05-22T16:20:56.885Z,33.65
2023-05-22T16:26:00.198Z,34.00
2023-05-22T16:31:03.540Z,34.42
2023-05-22T16:36:07.199Z,35.18
2023-05-22T16:41:10.344Z,36.09
2023-05-22T16:46:13.482Z,36.45
2023-05-22T16:51:16.878Z,36.61
2023-05-22T16:56:21.106Z,37.16
2023-05-22T17:01:24.486Z,37.99
2023-05-22T17:06:29.494Z,38.00
2023-05-22T17:11:33.214Z,37.80
2023-05-22T17:16:38.101Z,37.86
2023-05-22T17:21:41.466Z,38.94
2023-05-22T17:26:44.886Z,39.80
2023-05-22T17:31:48.292Z,40.13
2023-05-22T17:36:51.613Z,41.11
2023-05-22T17:41:54.719Z,41.91
2023-05-22T17:46:58.038Z,41.88
2023-05-22T17:52:01.144Z,42.46
2023-05-22T17:57:04.788Z,43.10
2023-05-22T18:02:09.799Z,43.61
2023-05-22T18:07:13.549Z,44.18
2023-05-22T18:12:31.063Z,44.66
2023-05-22T18:17:35.420Z,45.06
2023-05-22T18:22:40.144Z,45.53
2023-05-22T18:27:43.519Z,45.99
2023-05-22T18:32:46.740Z,46.72
2023-05-22T18:37:49.910Z,47.35
2023-05-22T18:42:53.122Z,47.94
2023-05-22T18:47:56.372Z,48.42
2023-05-22T18:52:59.692Z,49.31
2023-05-22T18:58:03.278Z,49.59
2023-05-22T19:03:06.656Z,50.00
2023-05-22T19:08:10.003Z,50.43
2023-05-22T19:13:13.117Z,50.97
2023-05-22T19:18:16.525Z,51.36
2023-05-22T19:23:19.638Z,51.66
2023-05-22T19:28:23.345Z,52.21
2023-05-22T19:33:27.181Z,52.77
2023-05-22T19:38:31.390Z,53.25
2023-05-22T19:43:35.069Z,53.63
2023-05-22T19:48:38.261Z,54.31
2023-05-22T19:53:41.872Z,54.91
2023-05-22T19:58:45.320Z,55.19
2023-05-22T20:03:48.626Z,55.65
2023-05-22T20:08:51.926Z,56.11
2023-05-22T20:13:55.696Z,56.18
2023-05-22T20:18:58.965Z,56.55
2023-05-22T20:24:06.130Z,57.03
2023-05-22T20:29:09.577Z,57.49
2023-05-22T20:34:12.890Z,58.18
2023-05-22T20:39:16.515Z,59.04
2023-05-22T20:44:23.763Z,59.91
2023-05-22T20:49:28.292Z,61.05
2023-05-22T20:54:34.815Z,62.26
2023-05-22T20:59:38.365Z,63.13
2023-05-22T21:04:41.681Z,63.65
2023-05-22T21:09:45.008Z,65.43
2023-05-22T21:14:48.424Z,66.89
2023-05-22T21:19:51.724Z,67.79
2023-05-22T21:24:55.048Z,68.79
2023-05-22T21:29:58.156Z,69.79
2023-05-22T21:35:01.259Z,70.06
2023-05-22T21:40:04.900Z,70.98
2023-05-22T21:45:08.717Z,72.02
2023-05-22T21:50:12.138Z,72.52
2023-05-22T21:55:15.807Z,73.41
2023-05-22T22:00:19.308Z,73.76
2023-05-22T22:05:22.368Z,74.55
2023-05-22T22:10:25.596Z,75.79
2023-05-22T22:15:28.792Z,76.80
2023-05-22T22:20:44.124Z,77.46
2023-05-22T22:25:49.483Z,78.22
2023-05-22T22:30:55.328Z,78.42
2023-05-22T22:35:58.836Z,79.06
2023-05-22T22:41:02.055Z,79.44
2023-05-22T22:46:05.606Z,79.99
2023-05-22T22:51:09.813Z,81.15
2023-05-22T22:56:13.132Z,82.47
2023-05-22T23:01:16.251Z,83.60
2023-05-22T23:06:19.643Z,84.34
2023-05-22T23:11:22.760Z,85.18
2023-05-22T23:16:26.013Z,84.95
2023-05-22T23:21:29.377Z,85.22
2023-05-22T23:26:33.671Z,86.25
2023-05-22T23:31:37.323Z,86.42
2023-05-22T23:36:40.552Z,86.64
2023-05-22T23:41:44.684Z,87.03
2023-05-22T23:46:50.144Z,87.08
2023-05-22T23:51:53.253Z,87.32
2023-05-22T23:56:56.264Z,87.99
